sensor_id;sensor_type;location;lat;lon;timestamp;P1;durP1;ratioP1;P2;durP2;ratioP2
13388;SDS011;6764;53.250;10.410;2023-07-16T00:01:03;1.67;;;1.45;;
13388;SDS011;6764;53.250;10.410;2023-07-16T00:03:28;1.70;;;1.23;;
13388;SDS011;6764;53.250;10.410;2023-07-16T00:05:54;1.50;;;1.08;;
13388;SDS011;6764;53.250;10.410;2023-07-16T00:08:19;1.92;;;1.33;;
13388;SDS011;6764;53.250;10.410;2023-07-16T00:10:45;1.88;;;1.40;;
13388;SDS011;6764;53.250;10.410;2023-07-16T00:13:11;2.72;;;1.40;;
13388;SDS011;6764;53.250;10.410;2023-07-16T00:15:36;2.38;;;1.80;;
13388;SDS011;6764;53.250;10.410;2023-07-16T00:18:02;1.88;;;1.33;;
13388;SDS011;6764;53.250;10.410;2023-07-16T00:20:28;2.13;;;1.40;;
13388;SDS011;6764;53.250;10.410;2023-07-16T00:22:54;1.35;;;1.25;;
13388;SDS011;6764;53.250;10.410;2023-07-16T00:25:19;3.08;;;1.50;;
13388;SDS011;6764;53.250;10.410;2023-07-16T00:27:45;2.03;;;1.38;;
13388;SDS011;6764;53.250;10.410;2023-07-16T00:30:11;2.13;;;1.52;;
13388;SDS011;6764;53.250;10.410;2023-07-16T00:32:37;2.05;;;1.40;;
13388;SDS011;6764;53.250;10.410;2023-07-16T00:35:03;4.00;;;1.52;;
13388;SDS011;6764;53.250;10.410;2023-07-16T00:37:30;2.45;;;1.70;;
13388;SDS011;6764;53.250;10.410;2023-07-16T00:39:56;2.72;;;1.75;;
13388;SDS011;6764;53.250;10.410;2023-07-16T00:42:22;5.28;;;1.95;;
13388;SDS011;6764;53.250;10.410;2023-07-16T00:44:47;1.65;;;1.42;;
13388;SDS011;6764;53.250;10.410;2023-07-16T00:47:13;1.60;;;1.30;;
13388;SDS011;6764;53.250;10.410;2023-07-16T00:49:39;2.90;;;1.48;;
13388;SDS011;6764;53.250;10.410;2023-07-16T00:52:05;1.85;;;1.70;;
13388;SDS011;6764;53.250;10.410;2023-07-16T00:54:36;2.55;;;1.70;;
13388;SDS011;6764;53.250;10.410;2023-07-16T00:57:03;1.65;;;1.27;;
13388;SDS011;6764;53.250;10.410;2023-07-16T00:59:28;2.10;;;1.52;;
13388;SDS011;6764;53.250;10.410;2023-07-16T01:01:54;1.95;;;1.58;;
13388;SDS011;6764;53.250;10.410;2023-07-16T01:04:20;2.83;;;1.33;;
13388;SDS011;6764;53.250;10.410;2023-07-16T01:06:50;2.95;;;1.65;;
13388;SDS011;6764;53.250;10.410;2023-07-16T01:09:19;1.70;;;1.50;;
13388;SDS011;6764;53.250;10.410;2023-07-16T01:11:45;2.25;;;1.85;;
13388;SDS011;6764;53.250;10.410;2023-07-16T01:14:13;2.10;;;1.50;;
13388;SDS011;6764;53.250;10.410;2023-07-16T01:16:41;2.75;;;1.30;;
13388;SDS011;6764;53.250;10.410;2023-07-16T01:19:07;2.88;;;1.65;;
13388;SDS011;6764;53.250;10.410;2023-07-16T01:22:25;1.42;;;1.20;;
13388;SDS011;6764;53.250;10.410;2023-07-16T01:30:15;1.45;;;1.30;;
13388;SDS011;6764;53.250;10.410;2023-07-16T01:32:41;4.00;;;1.55;;
13388;SDS011;6764;53.250;10.410;2023-07-16T01:35:07;1.52;;;1.42;;
13388;SDS011;6764;53.250;10.410;2023-07-16T01:37:34;2.47;;;1.58;;
13388;SDS011;6764;53.250;10.410;2023-07-16T01:40:00;2.28;;;1.42;;
13388;SDS011;6764;53.250;10.410;2023-07-16T01:42:26;1.48;;;1.27;;
13388;SDS011;6764;53.250;10.410;2023-07-16T01:44:53;1.88;;;1.58;;
13388;SDS011;6764;53.250;10.410;2023-07-16T01:47:24;2.20;;;1.52;;
13388;SDS011;6764;53.250;10.410;2023-07-16T01:50:10;2.45;;;1.73;;
13388;SDS011;6764;53.250;10.410;2023-07-16T01:52:36;3.25;;;1.50;;
13388;SDS011;6764;53.250;10.410;2023-07-16T01:55:01;3.75;;;1.52;;
13388;SDS011;6764;53.250;10.410;2023-07-16T01:57:27;2.17;;;1.40;;
13388;SDS011;6764;53.250;10.410;2023-07-16T01:59:53;2.47;;;1.70;;
13388;SDS011;6764;53.250;10.410;2023-07-16T02:02:18;2.20;;;1.42;;
13388;SDS011;6764;53.250;10.410;2023-07-16T02:04:44;2.65;;;1.63;;
13388;SDS011;6764;53.250;10.410;2023-07-16T02:07:09;2.28;;;1.55;;
13388;SDS011;6764;53.250;10.410;2023-07-16T02:09:35;4.00;;;1.70;;
13388;SDS011;6764;53.250;10.410;2023-07-16T02:12:01;2.13;;;1.33;;
13388;SDS011;6764;53.250;10.410;2023-07-16T02:14:27;3.70;;;1.80;;
13388;SDS011;6764;53.250;10.410;2023-07-16T02:16:52;2.28;;;1.50;;
13388;SDS011;6764;53.250;10.410;2023-07-16T02:19:18;3.22;;;1.70;;
13388;SDS011;6764;53.250;10.410;2023-07-16T02:21:43;1.88;;;1.42;;
13388;SDS011;6764;53.250;10.410;2023-07-16T02:24:09;2.47;;;1.70;;
13388;SDS011;6764;53.250;10.410;2023-07-16T02:26:35;4.47;;;1.70;;
13388;SDS011;6764;53.250;10.410;2023-07-16T02:29:00;2.70;;;1.63;;
13388;SDS011;6764;53.250;10.410;2023-07-16T02:31:26;2.03;;;1.55;;
13388;SDS011;6764;53.250;10.410;2023-07-16T02:33:52;2.78;;;1.85;;
13388;SDS011;6764;53.250;10.410;2023-07-16T02:36:17;3.55;;;1.40;;
13388;SDS011;6764;53.250;10.410;2023-07-16T02:38:43;1.77;;;1.48;;
13388;SDS011;6764;53.250;10.410;2023-07-16T02:41:08;2.35;;;1.40;;
13388;SDS011;6764;53.250;10.410;2023-07-16T02:43:34;1.48;;;1.38;;
13388;SDS011;6764;53.250;10.410;2023-07-16T02:45:59;2.95;;;1.70;;
13388;SDS011;6764;53.250;10.410;2023-07-16T02:48:25;2.10;;;1.60;;
13388;SDS011;6764;53.250;10.410;2023-07-16T02:50:51;1.70;;;1.50;;
13388;SDS011;6764;53.250;10.410;2023-07-16T02:53:16;2.20;;;1.70;;
13388;SDS011;6764;53.250;10.410;2023-07-16T02:55:42;4.30;;;1.90;;
13388;SDS011;6764;53.250;10.410;2023-07-16T02:58:11;2.67;;;2.03;;
13388;SDS011;6764;53.250;10.410;2023-07-16T03:00:37;2.55;;;1.75;;
13388;SDS011;6764;53.250;10.410;2023-07-16T03:03:02;6.40;;;1.75;;
13388;SDS011;6764;53.250;10.410;2023-07-16T03:05:28;1.85;;;1.70;;
13388;SDS011;6764;53.250;10.410;2023-07-16T03:07:54;5.13;;;1.98;;
13388;SDS011;6764;53.250;10.410;2023-07-16T03:10:20;3.63;;;2.20;;
13388;SDS011;6764;53.250;10.410;2023-07-16T03:12:46;2.03;;;1.70;;
13388;SDS011;6764;53.250;10.410;2023-07-16T03:15:12;4.03;;;1.92;;
13388;SDS011;6764;53.250;10.410;2023-07-16T03:17:38;3.17;;;1.77;;
13388;SDS011;6764;53.250;10.410;2023-07-16T03:20:03;2.35;;;1.77;;
13388;SDS011;6764;53.250;10.410;2023-07-16T03:22:30;3.50;;;2.10;;
13388;SDS011;6764;53.250;10.410;2023-07-16T03:24:56;1.88;;;1.75;;
13388;SDS011;6764;53.250;10.410;2023-07-16T03:27:22;2.17;;;1.50;;
13388;SDS011;6764;53.250;10.410;2023-07-16T03:29:47;6.32;;;1.90;;
13388;SDS011;6764;53.250;10.410;2023-07-16T03:32:13;3.88;;;2.05;;
13388;SDS011;6764;53.250;10.410;2023-07-16T03:34:38;2.75;;;2.08;;
13388;SDS011;6764;53.250;10.410;2023-07-16T03:37:04;3.55;;;1.90;;
13388;SDS011;6764;53.250;10.410;2023-07-16T03:39:30;2.15;;;1.90;;
13388;SDS011;6764;53.250;10.410;2023-07-16T03:41:55;3.15;;;2.00;;
13388;SDS011;6764;53.250;10.410;2023-07-16T03:44:21;3.00;;;1.90;;
13388;SDS011;6764;53.250;10.410;2023-07-16T03:46:47;3.35;;;1.80;;
13388;SDS011;6764;53.250;10.410;2023-07-16T03:49:12;2.00;;;1.73;;
13388;SDS011;6764;53.250;10.410;2023-07-16T03:51:38;2.45;;;1.90;;
13388;SDS011;6764;53.250;10.410;2023-07-16T03:54:03;3.85;;;2.03;;
13388;SDS011;6764;53.250;10.410;2023-07-16T03:56:29;4.50;;;1.90;;
13388;SDS011;6764;53.250;10.410;2023-07-16T03:58:54;3.83;;;2.28;;
13388;SDS011;6764;53.250;10.410;2023-07-16T04:01:20;2.58;;;2.00;;
13388;SDS011;6764;53.250;10.410;2023-07-16T04:03:46;4.70;;;2.10;;
13388;SDS011;6764;53.250;10.410;2023-07-16T04:06:11;3.38;;;2.03;;
13388;SDS011;6764;53.250;10.410;2023-07-16T04:08:37;3.42;;;2.50;;
13388;SDS011;6764;53.250;10.410;2023-07-16T04:11:04;4.28;;;2.47;;
13388;SDS011;6764;53.250;10.410;2023-07-16T04:13:29;4.55;;;1.88;;
13388;SDS011;6764;53.250;10.410;2023-07-16T04:15:56;5.70;;;2.15;;
13388;SDS011;6764;53.250;10.410;2023-07-16T04:18:22;3.47;;;2.05;;
13388;SDS011;6764;53.250;10.410;2023-07-16T04:20:49;4.75;;;1.90;;
13388;SDS011;6764;53.250;10.410;2023-07-16T04:23:14;2.90;;;1.80;;
13388;SDS011;6764;53.250;10.410;2023-07-16T04:25:40;2.90;;;2.30;;
13388;SDS011;6764;53.250;10.410;2023-07-16T04:28:06;2.33;;;2.03;;
13388;SDS011;6764;53.250;10.410;2023-07-16T04:30:31;2.58;;;1.95;;
13388;SDS011;6764;53.250;10.410;2023-07-16T04:32:57;3.38;;;2.33;;
13388;SDS011;6764;53.250;10.410;2023-07-16T04:35:22;4.97;;;2.20;;
13388;SDS011;6764;53.250;10.410;2023-07-16T04:37:48;5.53;;;2.15;;
13388;SDS011;6764;53.250;10.410;2023-07-16T04:40:14;3.50;;;2.10;;
13388;SDS011;6764;53.250;10.410;2023-07-16T04:42:39;4.47;;;2.28;;
13388;SDS011;6764;53.250;10.410;2023-07-16T04:45:05;2.47;;;1.98;;
13388;SDS011;6764;53.250;10.410;2023-07-16T04:47:31;3.08;;;2.13;;
13388;SDS011;6764;53.250;10.410;2023-07-16T04:50:00;4.25;;;2.10;;
13388;SDS011;6764;53.250;10.410;2023-07-16T04:52:25;3.45;;;2.20;;
13388;SDS011;6764;53.250;10.410;2023-07-16T04:54:51;4.53;;;2.22;;
13388;SDS011;6764;53.250;10.410;2023-07-16T04:57:17;2.97;;;2.10;;
13388;SDS011;6764;53.250;10.410;2023-07-16T04:59:42;4.30;;;2.03;;
13388;SDS011;6764;53.250;10.410;2023-07-16T05:02:08;3.10;;;2.08;;
13388;SDS011;6764;53.250;10.410;2023-07-16T05:04:34;3.60;;;2.10;;
13388;SDS011;6764;53.250;10.410;2023-07-16T05:07:03;4.55;;;2.08;;
13388;SDS011;6764;53.250;10.410;2023-07-16T05:09:29;3.28;;;2.10;;
13388;SDS011;6764;53.250;10.410;2023-07-16T05:11:55;5.60;;;2.33;;
13388;SDS011;6764;53.250;10.410;2023-07-16T05:14:20;2.50;;;2.30;;
13388;SDS011;6764;53.250;10.410;2023-07-16T05:16:46;3.42;;;2.10;;
13388;SDS011;6764;53.250;10.410;2023-07-16T05:19:11;3.92;;;2.40;;
13388;SDS011;6764;53.250;10.410;2023-07-16T05:21:37;4.20;;;1.90;;
13388;SDS011;6764;53.250;10.410;2023-07-16T05:24:03;5.30;;;2.33;;
13388;SDS011;6764;53.250;10.410;2023-07-16T05:26:29;4.03;;;2.53;;
13388;SDS011;6764;53.250;10.410;2023-07-16T05:28:54;2.50;;;1.83;;
13388;SDS011;6764;53.250;10.410;2023-07-16T05:31:20;2.92;;;2.00;;
13388;SDS011;6764;53.250;10.410;2023-07-16T05:33:46;3.35;;;2.13;;
13388;SDS011;6764;53.250;10.410;2023-07-16T05:36:11;4.93;;;2.53;;
13388;SDS011;6764;53.250;10.410;2023-07-16T05:38:37;3.25;;;2.22;;
13388;SDS011;6764;53.250;10.410;2023-07-16T05:41:03;2.85;;;2.05;;
13388;SDS011;6764;53.250;10.410;2023-07-16T05:43:29;4.15;;;2.38;;
13388;SDS011;6764;53.250;10.410;2023-07-16T05:45:55;3.28;;;1.88;;
13388;SDS011;6764;53.250;10.410;2023-07-16T05:48:21;4.80;;;2.20;;
13388;SDS011;6764;53.250;10.410;2023-07-16T05:50:47;9.40;;;2.40;;
13388;SDS011;6764;53.250;10.410;2023-07-16T05:53:12;4.80;;;2.25;;
13388;SDS011;6764;53.250;10.410;2023-07-16T05:55:41;3.17;;;1.90;;
13388;SDS011;6764;53.250;10.410;2023-07-16T05:58:07;3.58;;;2.30;;
13388;SDS011;6764;53.250;10.410;2023-07-16T06:00:34;3.15;;;2.33;;
13388;SDS011;6764;53.250;10.410;2023-07-16T06:03:00;5.13;;;2.13;;
13388;SDS011;6764;53.250;10.410;2023-07-16T06:05:26;3.58;;;1.98;;
13388;SDS011;6764;53.250;10.410;2023-07-16T06:07:56;5.97;;;2.67;;
13388;SDS011;6764;53.250;10.410;2023-07-16T06:10:21;3.28;;;2.30;;
13388;SDS011;6764;53.250;10.410;2023-07-16T06:12:47;4.43;;;2.28;;
13388;SDS011;6764;53.250;10.410;2023-07-16T06:15:12;3.35;;;1.95;;
13388;SDS011;6764;53.250;10.410;2023-07-16T06:17:38;3.35;;;1.92;;
13388;SDS011;6764;53.250;10.410;2023-07-16T06:20:04;2.47;;;1.95;;
13388;SDS011;6764;53.250;10.410;2023-07-16T06:22:31;3.42;;;1.95;;
13388;SDS011;6764;53.250;10.410;2023-07-16T06:24:56;4.22;;;2.40;;
13388;SDS011;6764;53.250;10.410;2023-07-16T06:27:22;4.28;;;2.40;;
13388;SDS011;6764;53.250;10.410;2023-07-16T06:29:47;4.65;;;2.25;;
13388;SDS011;6764;53.250;10.410;2023-07-16T06:32:13;3.17;;;2.13;;
13388;SDS011;6764;53.250;10.410;2023-07-16T06:34:39;1.98;;;1.88;;
13388;SDS011;6764;53.250;10.410;2023-07-16T06:37:05;2.58;;;1.90;;
13388;SDS011;6764;53.250;10.410;2023-07-16T06:39:31;4.10;;;2.00;;
13388;SDS011;6764;53.250;10.410;2023-07-16T06:41:57;4.40;;;2.25;;
13388;SDS011;6764;53.250;10.410;2023-07-16T06:44:22;2.28;;;1.58;;
13388;SDS011;6764;53.250;10.410;2023-07-16T06:46:48;5.80;;;2.17;;
13388;SDS011;6764;53.250;10.410;2023-07-16T06:49:14;2.75;;;2.00;;
13388;SDS011;6764;53.250;10.410;2023-07-16T06:51:40;3.25;;;1.98;;
13388;SDS011;6764;53.250;10.410;2023-07-16T06:54:06;2.28;;;1.50;;
13388;SDS011;6764;53.250;10.410;2023-07-16T06:56:32;4.07;;;2.03;;
13388;SDS011;6764;53.250;10.410;2023-07-16T06:58:58;2.33;;;1.85;;
13388;SDS011;6764;53.250;10.410;2023-07-16T07:01:24;3.47;;;1.65;;
13388;SDS011;6764;53.250;10.410;2023-07-16T07:03:52;12.57;;;2.75;;
13388;SDS011;6764;53.250;10.410;2023-07-16T07:06:18;6.38;;;2.22;;
13388;SDS011;6764;53.250;10.410;2023-07-16T07:08:44;4.03;;;1.67;;
13388;SDS011;6764;53.250;10.410;2023-07-16T07:11:10;3.67;;;2.00;;
13388;SDS011;6764;53.250;10.410;2023-07-16T07:13:36;5.38;;;1.92;;
13388;SDS011;6764;53.250;10.410;2023-07-16T07:16:01;2.78;;;1.92;;
13388;SDS011;6764;53.250;10.410;2023-07-16T07:18:27;3.38;;;1.70;;
13388;SDS011;6764;53.250;10.410;2023-07-16T07:20:52;3.53;;;1.90;;
13388;SDS011;6764;53.250;10.410;2023-07-16T07:23:18;5.30;;;2.13;;
13388;SDS011;6764;53.250;10.410;2023-07-16T07:25:48;3.10;;;2.05;;
13388;SDS011;6764;53.250;10.410;2023-07-16T07:28:17;4.55;;;1.92;;
13388;SDS011;6764;53.250;10.410;2023-07-16T07:30:44;2.90;;;1.65;;
13388;SDS011;6764;53.250;10.410;2023-07-16T07:33:10;3.05;;;1.67;;
13388;SDS011;6764;53.250;10.410;2023-07-16T07:35:35;2.58;;;1.85;;
13388;SDS011;6764;53.250;10.410;2023-07-16T07:38:01;5.40;;;1.42;;
13388;SDS011;6764;53.250;10.410;2023-07-16T07:40:27;2.72;;;1.60;;
13388;SDS011;6764;53.250;10.410;2023-07-16T07:42:52;7.18;;;1.75;;
13388;SDS011;6764;53.250;10.410;2023-07-16T07:45:18;4.10;;;1.88;;
13388;SDS011;6764;53.250;10.410;2023-07-16T07:47:43;4.28;;;1.90;;
13388;SDS011;6764;53.250;10.410;2023-07-16T07:50:09;3.33;;;1.70;;
13388;SDS011;6764;53.250;10.410;2023-07-16T07:52:35;3.80;;;1.30;;
13388;SDS011;6764;53.250;10.410;2023-07-16T07:55:01;4.75;;;1.88;;
13388;SDS011;6764;53.250;10.410;2023-07-16T07:57:26;5.45;;;1.95;;
13388;SDS011;6764;53.250;10.410;2023-07-16T07:59:52;4.07;;;1.77;;
13388;SDS011;6764;53.250;10.410;2023-07-16T08:02:22;1.98;;;1.50;;
13388;SDS011;6764;53.250;10.410;2023-07-16T08:04:51;2.20;;;1.60;;
13388;SDS011;6764;53.250;10.410;2023-07-16T08:07:17;4.32;;;1.70;;
13388;SDS011;6764;53.250;10.410;2023-07-16T08:09:43;3.53;;;1.75;;
13388;SDS011;6764;53.250;10.410;2023-07-16T08:12:09;3.72;;;1.88;;
13388;SDS011;6764;53.250;10.410;2023-07-16T08:14:35;6.50;;;1.90;;
13388;SDS011;6764;53.250;10.410;2023-07-16T08:17:01;3.75;;;2.08;;
13388;SDS011;6764;53.250;10.410;2023-07-16T08:19:26;3.20;;;1.90;;
13388;SDS011;6764;53.250;10.410;2023-07-16T08:21:52;4.95;;;1.80;;
13388;SDS011;6764;53.250;10.410;2023-07-16T08:24:18;4.00;;;1.70;;
13388;SDS011;6764;53.250;10.410;2023-07-16T08:26:43;2.13;;;1.48;;
13388;SDS011;6764;53.250;10.410;2023-07-16T08:29:10;5.35;;;2.08;;
13388;SDS011;6764;53.250;10.410;2023-07-16T08:31:35;3.50;;;2.08;;
13388;SDS011;6764;53.250;10.410;2023-07-16T08:34:01;2.83;;;2.00;;
13388;SDS011;6764;53.250;10.410;2023-07-16T08:36:27;5.43;;;2.15;;
13388;SDS011;6764;53.250;10.410;2023-07-16T08:38:52;9.75;;;2.65;;
13388;SDS011;6764;53.250;10.410;2023-07-16T08:41:18;3.50;;;1.90;;
13388;SDS011;6764;53.250;10.410;2023-07-16T08:43:46;3.00;;;2.08;;
13388;SDS011;6764;53.250;10.410;2023-07-16T08:46:13;2.38;;;1.70;;
13388;SDS011;6764;53.250;10.410;2023-07-16T08:48:40;4.68;;;2.33;;
13388;SDS011;6764;53.250;10.410;2023-07-16T08:51:06;4.65;;;2.13;;
13388;SDS011;6764;53.250;10.410;2023-07-16T08:53:34;6.45;;;2.30;;
13388;SDS011;6764;53.250;10.410;2023-07-16T08:56:00;8.38;;;2.53;;
13388;SDS011;6764;53.250;10.410;2023-07-16T08:58:29;3.42;;;2.20;;
13388;SDS011;6764;53.250;10.410;2023-07-16T09:00:55;3.78;;;2.25;;
13388;SDS011;6764;53.250;10.410;2023-07-16T09:03:21;7.60;;;2.63;;
13388;SDS011;6764;53.250;10.410;2023-07-16T09:05:47;2.75;;;2.10;;
13388;SDS011;6764;53.250;10.410;2023-07-16T09:08:13;3.83;;;2.20;;
13388;SDS011;6764;53.250;10.410;2023-07-16T09:10:40;5.57;;;2.42;;
13388;SDS011;6764;53.250;10.410;2023-07-16T09:13:06;4.32;;;2.13;;
13388;SDS011;6764;53.250;10.410;2023-07-16T09:15:32;6.07;;;2.50;;
13388;SDS011;6764;53.250;10.410;2023-07-16T09:17:59;3.33;;;2.45;;
13388;SDS011;6764;53.250;10.410;2023-07-16T09:20:25;5.15;;;2.25;;
13388;SDS011;6764;53.250;10.410;2023-07-16T09:22:55;7.70;;;2.88;;
13388;SDS011;6764;53.250;10.410;2023-07-16T09:25:26;8.35;;;2.65;;
13388;SDS011;6764;53.250;10.410;2023-07-16T09:27:57;4.10;;;2.40;;
13388;SDS011;6764;53.250;10.410;2023-07-16T09:30:30;5.72;;;2.05;;
13388;SDS011;6764;53.250;10.410;2023-07-16T09:33:09;4.38;;;2.33;;
13388;SDS011;6764;53.250;10.410;2023-07-16T09:35:42;4.72;;;2.17;;
13388;SDS011;6764;53.250;10.410;2023-07-16T09:38:08;5.80;;;2.67;;
13388;SDS011;6764;53.250;10.410;2023-07-16T09:40:35;4.28;;;2.17;;
13388;SDS011;6764;53.250;10.410;2023-07-16T09:43:02;3.25;;;2.33;;
13388;SDS011;6764;53.250;10.410;2023-07-16T09:45:29;4.38;;;2.72;;
13388;SDS011;6764;53.250;10.410;2023-07-16T09:47:55;3.38;;;2.30;;
13388;SDS011;6764;53.250;10.410;2023-07-16T09:50:22;4.38;;;2.17;;
13388;SDS011;6764;53.250;10.410;2023-07-16T09:52:50;5.30;;;2.40;;
13388;SDS011;6764;53.250;10.410;2023-07-16T09:55:16;3.60;;;2.25;;
13388;SDS011;6764;53.250;10.410;2023-07-16T09:57:46;4.60;;;2.25;;
13388;SDS011;6764;53.250;10.410;2023-07-16T10:00:13;5.07;;;2.55;;
13388;SDS011;6764;53.250;10.410;2023-07-16T10:02:41;3.75;;;2.30;;
13388;SDS011;6764;53.250;10.410;2023-07-16T10:05:26;6.03;;;2.42;;
13388;SDS011;6764;53.250;10.410;2023-07-16T10:07:59;5.65;;;2.50;;
13388;SDS011;6764;53.250;10.410;2023-07-16T10:10:45;6.22;;;2.85;;
13388;SDS011;6764;53.250;10.410;2023-07-16T10:13:13;5.28;;;2.42;;
13388;SDS011;6764;53.250;10.410;2023-07-16T10:15:50;3.38;;;2.13;;
13388;SDS011;6764;53.250;10.410;2023-07-16T10:18:32;4.80;;;2.42;;
13388;SDS011;6764;53.250;10.410;2023-07-16T10:21:06;4.20;;;2.58;;
13388;SDS011;6764;53.250;10.410;2023-07-16T10:24:16;3.67;;;2.40;;
13388;SDS011;6764;53.250;10.410;2023-07-16T10:26:26;6.75;;;2.70;;
13388;SDS011;6764;53.250;10.410;2023-07-16T10:28:55;5.70;;;2.83;;
13388;SDS011;6764;53.250;10.410;2023-07-16T10:31:24;5.97;;;2.83;;
13388;SDS011;6764;53.250;10.410;2023-07-16T10:34:00;3.72;;;2.60;;
13388;SDS011;6764;53.250;10.410;2023-07-16T10:36:39;6.22;;;2.72;;
13388;SDS011;6764;53.250;10.410;2023-07-16T10:39:05;4.05;;;2.75;;
13388;SDS011;6764;53.250;10.410;2023-07-16T10:41:31;5.05;;;2.58;;
13388;SDS011;6764;53.250;10.410;2023-07-16T10:44:00;3.08;;;2.50;;
13388;SDS011;6764;53.250;10.410;2023-07-16T10:46:26;4.50;;;2.78;;
13388;SDS011;6764;53.250;10.410;2023-07-16T10:48:52;4.47;;;2.78;;
13388;SDS011;6764;53.250;10.410;2023-07-16T10:51:17;4.57;;;2.83;;
13388;SDS011;6764;53.250;10.410;2023-07-16T10:53:50;4.47;;;2.90;;
13388;SDS011;6764;53.250;10.410;2023-07-16T10:56:16;5.43;;;3.00;;
13388;SDS011;6764;53.250;10.410;2023-07-16T10:58:41;5.05;;;3.15;;
13388;SDS011;6764;53.250;10.410;2023-07-16T11:01:08;3.70;;;2.60;;
13388;SDS011;6764;53.250;10.410;2023-07-16T11:03:34;6.75;;;3.40;;
13388;SDS011;6764;53.250;10.410;2023-07-16T11:06:05;8.52;;;3.25;;
13388;SDS011;6764;53.250;10.410;2023-07-16T11:08:34;4.93;;;2.97;;
13388;SDS011;6764;53.250;10.410;2023-07-16T11:10:59;5.80;;;2.72;;
13388;SDS011;6764;53.250;10.410;2023-07-16T11:13:28;5.25;;;2.80;;
13388;SDS011;6764;53.250;10.410;2023-07-16T11:15:56;3.95;;;3.03;;
13388;SDS011;6764;53.250;10.410;2023-07-16T11:18:22;5.85;;;2.92;;
13388;SDS011;6764;53.250;10.410;2023-07-16T11:20:52;6.25;;;3.20;;
13388;SDS011;6764;53.250;10.410;2023-07-16T11:23:18;4.47;;;2.65;;
13388;SDS011;6764;53.250;10.410;2023-07-16T11:25:47;8.70;;;3.20;;
13388;SDS011;6764;53.250;10.410;2023-07-16T11:28:13;3.75;;;2.67;;
13388;SDS011;6764;53.250;10.410;2023-07-16T11:30:40;4.70;;;2.92;;
13388;SDS011;6764;53.250;10.410;2023-07-16T11:33:11;5.13;;;3.00;;
13388;SDS011;6764;53.250;10.410;2023-07-16T11:35:38;5.90;;;2.72;;
13388;SDS011;6764;53.250;10.410;2023-07-16T11:38:04;3.47;;;2.50;;
13388;SDS011;6764;53.250;10.410;2023-07-16T11:40:31;7.47;;;2.90;;
13388;SDS011;6764;53.250;10.410;2023-07-16T11:43:12;3.80;;;2.70;;
13388;SDS011;6764;53.250;10.410;2023-07-16T11:45:37;3.63;;;2.45;;
13388;SDS011;6764;53.250;10.410;2023-07-16T11:48:04;4.47;;;2.85;;
13388;SDS011;6764;53.250;10.410;2023-07-16T11:50:30;4.32;;;2.95;;
13388;SDS011;6764;53.250;10.410;2023-07-16T11:52:58;3.90;;;3.00;;
13388;SDS011;6764;53.250;10.410;2023-07-16T11:55:26;5.07;;;3.00;;
13388;SDS011;6764;53.250;10.410;2023-07-16T11:57:51;5.20;;;2.92;;
13388;SDS011;6764;53.250;10.410;2023-07-16T12:00:17;6.20;;;3.00;;
13388;SDS011;6764;53.250;10.410;2023-07-16T12:02:44;6.13;;;2.83;;
13388;SDS011;6764;53.250;10.410;2023-07-16T12:05:16;5.72;;;2.20;;
13388;SDS011;6764;53.250;10.410;2023-07-16T12:07:42;3.88;;;2.50;;
13388;SDS011;6764;53.250;10.410;2023-07-16T12:10:08;5.30;;;2.33;;
13388;SDS011;6764;53.250;10.410;2023-07-16T12:12:34;3.70;;;2.47;;
13388;SDS011;6764;53.250;10.410;2023-07-16T12:15:03;5.05;;;2.60;;
13388;SDS011;6764;53.250;10.410;2023-07-16T12:17:30;3.17;;;2.47;;
13388;SDS011;6764;53.250;10.410;2023-07-16T12:19:55;6.00;;;3.10;;
13388;SDS011;6764;53.250;10.410;2023-07-16T12:22:21;5.38;;;2.60;;
13388;SDS011;6764;53.250;10.410;2023-07-16T12:24:47;5.55;;;2.50;;
13388;SDS011;6764;53.250;10.410;2023-07-16T12:27:14;3.88;;;2.78;;
13388;SDS011;6764;53.250;10.410;2023-07-16T12:29:41;3.92;;;2.50;;
13388;SDS011;6764;53.250;10.410;2023-07-16T12:32:06;4.07;;;2.63;;
13388;SDS011;6764;53.250;10.410;2023-07-16T12:34:33;3.45;;;2.65;;
13388;SDS011;6764;53.250;10.410;2023-07-16T12:36:59;5.10;;;3.15;;
13388;SDS011;6764;53.250;10.410;2023-07-16T12:39:24;5.72;;;3.05;;
13388;SDS011;6764;53.250;10.410;2023-07-16T12:41:50;3.45;;;2.72;;
13388;SDS011;6764;53.250;10.410;2023-07-16T12:44:16;5.45;;;3.13;;
13388;SDS011;6764;53.250;10.410;2023-07-16T12:46:41;4.80;;;2.35;;
13388;SDS011;6764;53.250;10.410;2023-07-16T12:49:07;4.78;;;2.58;;
13388;SDS011;6764;53.250;10.410;2023-07-16T12:51:32;4.97;;;2.40;;
13388;SDS011;6764;53.250;10.410;2023-07-16T12:53:58;3.38;;;2.55;;
13388;SDS011;6764;53.250;10.410;2023-07-16T12:56:25;4.63;;;2.70;;
13388;SDS011;6764;53.250;10.410;2023-07-16T12:58:51;3.70;;;2.85;;
13388;SDS011;6764;53.250;10.410;2023-07-16T13:01:17;3.58;;;2.58;;
13388;SDS011;6764;53.250;10.410;2023-07-16T13:03:42;4.13;;;2.58;;
13388;SDS011;6764;53.250;10.410;2023-07-16T13:06:08;7.72;;;2.97;;
13388;SDS011;6764;53.250;10.410;2023-07-16T13:08:34;5.32;;;2.60;;
13388;SDS011;6764;53.250;10.410;2023-07-16T13:11:00;5.00;;;2.60;;
13388;SDS011;6764;53.250;10.410;2023-07-16T13:13:25;5.63;;;2.40;;
13388;SDS011;6764;53.250;10.410;2023-07-16T13:15:51;5.47;;;2.63;;
13388;SDS011;6764;53.250;10.410;2023-07-16T13:18:17;6.68;;;2.60;;
13388;SDS011;6764;53.250;10.410;2023-07-16T13:20:43;4.97;;;2.45;;
13388;SDS011;6764;53.250;10.410;2023-07-16T13:23:09;4.90;;;2.55;;
13388;SDS011;6764;53.250;10.410;2023-07-16T13:25:35;2.90;;;2.20;;
13388;SDS011;6764;53.250;10.410;2023-07-16T13:28:03;5.90;;;2.58;;
13388;SDS011;6764;53.250;10.410;2023-07-16T13:30:29;4.82;;;2.47;;
13388;SDS011;6764;53.250;10.410;2023-07-16T13:32:55;2.67;;;1.92;;
13388;SDS011;6764;53.250;10.410;2023-07-16T13:35:22;3.95;;;2.67;;
13388;SDS011;6764;53.250;10.410;2023-07-16T13:37:48;6.25;;;2.88;;
13388;SDS011;6764;53.250;10.410;2023-07-16T13:40:13;4.75;;;2.38;;
13388;SDS011;6764;53.250;10.410;2023-07-16T13:42:39;4.70;;;3.22;;
13388;SDS011;6764;53.250;10.410;2023-07-16T13:45:05;3.63;;;2.58;;
13388;SDS011;6764;53.250;10.410;2023-07-16T13:47:31;3.78;;;3.03;;
13388;SDS011;6764;53.250;10.410;2023-07-16T13:49:57;5.85;;;2.50;;
13388;SDS011;6764;53.250;10.410;2023-07-16T13:52:23;3.17;;;2.75;;
13388;SDS011;6764;53.250;10.410;2023-07-16T13:54:48;4.97;;;2.88;;
13388;SDS011;6764;53.250;10.410;2023-07-16T13:57:14;4.10;;;2.60;;
13388;SDS011;6764;53.250;10.410;2023-07-16T13:59:40;5.63;;;2.92;;
13388;SDS011;6764;53.250;10.410;2023-07-16T14:02:05;5.80;;;2.88;;
13388;SDS011;6764;53.250;10.410;2023-07-16T14:04:31;5.90;;;2.65;;
13388;SDS011;6764;53.250;10.410;2023-07-16T14:06:58;4.47;;;2.80;;
13388;SDS011;6764;53.250;10.410;2023-07-16T14:09:24;5.88;;;2.72;;
13388;SDS011;6764;53.250;10.410;2023-07-16T14:11:49;4.88;;;2.58;;
13388;SDS011;6764;53.250;10.410;2023-07-16T14:14:15;6.03;;;3.03;;
13388;SDS011;6764;53.250;10.410;2023-07-16T14:16:41;3.65;;;2.80;;
13388;SDS011;6764;53.250;10.410;2023-07-16T14:19:08;3.92;;;2.80;;
13388;SDS011;6764;53.250;10.410;2023-07-16T14:21:33;5.03;;;2.65;;
13388;SDS011;6764;53.250;10.410;2023-07-16T14:23:59;7.72;;;3.35;;
13388;SDS011;6764;53.250;10.410;2023-07-16T14:26:25;6.82;;;3.20;;
13388;SDS011;6764;53.250;10.410;2023-07-16T14:28:50;3.50;;;2.47;;
13388;SDS011;6764;53.250;10.410;2023-07-16T14:31:16;4.65;;;2.70;;
13388;SDS011;6764;53.250;10.410;2023-07-16T14:33:42;6.07;;;2.85;;
13388;SDS011;6764;53.250;10.410;2023-07-16T14:36:07;4.47;;;2.70;;
13388;SDS011;6764;53.250;10.410;2023-07-16T14:38:33;3.92;;;2.55;;
13388;SDS011;6764;53.250;10.410;2023-07-16T14:40:59;3.13;;;2.28;;
13388;SDS011;6764;53.250;10.410;2023-07-16T14:43:25;3.15;;;2.45;;
13388;SDS011;6764;53.250;10.410;2023-07-16T14:45:50;4.03;;;2.75;;
13388;SDS011;6764;53.250;10.410;2023-07-16T14:48:16;4.45;;;2.50;;
13388;SDS011;6764;53.250;10.410;2023-07-16T14:50:42;4.95;;;2.67;;